sensor_id;sensor_type;location;lat;lon;timestamp;P1;durP1;ratioP1;P2;durP2;ratioP2
52866;SDS011;38739;53.324;6.862;2023-04-06T00:01:36;18.48;;;10.52;;
52866;SDS011;38739;53.324;6.862;2023-04-06T00:04:02;15.40;;;11.30;;
52866;SDS011;38739;53.324;6.862;2023-04-06T00:06:28;16.95;;;10.75;;
52866;SDS011;38739;53.324;6.862;2023-04-06T00:08:55;16.98;;;11.25;;
52866;SDS011;38739;53.324;6.862;2023-04-06T00:11:21;17.80;;;10.90;;
52866;SDS011;38739;53.324;6.862;2023-04-06T00:13:47;14.55;;;11.48;;
52866;SDS011;38739;53.324;6.862;2023-04-06T00:16:13;16.73;;;10.85;;
52866;SDS011;38739;53.324;6.862;2023-04-06T00:18:39;14.60;;;11.20;;
52866;SDS011;38739;53.324;6.862;2023-04-06T00:21:05;17.42;;;11.15;;
52866;SDS011;38739;53.324;6.862;2023-04-06T00:23:31;16.40;;;11.35;;
52866;SDS011;38739;53.324;6.862;2023-04-06T00:25:57;16.48;;;11.48;;
52866;SDS011;38739;53.324;6.862;2023-04-06T00:28:22;16.42;;;10.95;;
52866;SDS011;38739;53.324;6.862;2023-04-06T00:30:51;16.98;;;11.18;;
52866;SDS011;38739;53.324;6.862;2023-04-06T00:33:21;18.05;;;11.20;;
52866;SDS011;38739;53.324;6.862;2023-04-06T00:35:48;18.90;;;11.30;;
52866;SDS011;38739;53.324;6.862;2023-04-06T00:38:14;15.93;;;11.25;;
52866;SDS011;38739;53.324;6.862;2023-04-06T00:40:41;16.40;;;11.30;;
52866;SDS011;38739;53.324;6.862;2023-04-06T00:43:09;18.90;;;11.65;;
52866;SDS011;38739;53.324;6.862;2023-04-06T00:45:37;18.38;;;11.98;;
52866;SDS011;38739;53.324;6.862;2023-04-06T00:48:04;18.67;;;12.52;;
52866;SDS011;38739;53.324;6.862;2023-04-06T00:50:30;18.75;;;12.43;;
52866;SDS011;38739;53.324;6.862;2023-04-06T00:52:56;17.63;;;11.82;;
52866;SDS011;38739;53.324;6.862;2023-04-06T00:55:22;19.08;;;12.98;;
52866;SDS011;38739;53.324;6.862;2023-04-06T00:57:47;17.23;;;12.43;;
52866;SDS011;38739;53.324;6.862;2023-04-06T01:00:15;17.42;;;13.10;;
52866;SDS011;38739;53.324;6.862;2023-04-06T01:02:41;23.77;;;12.88;;
52866;SDS011;38739;53.324;6.862;2023-04-06T01:05:07;18.27;;;12.98;;
52866;SDS011;38739;53.324;6.862;2023-04-06T01:07:33;18.00;;;12.65;;
52866;SDS011;38739;53.324;6.862;2023-04-06T01:09:59;18.52;;;13.23;;
52866;SDS011;38739;53.324;6.862;2023-04-06T01:12:25;19.73;;;13.05;;
52866;SDS011;38739;53.324;6.862;2023-04-06T01:14:51;19.30;;;13.13;;
52866;SDS011;38739;53.324;6.862;2023-04-06T01:17:16;18.50;;;12.77;;
52866;SDS011;38739;53.324;6.862;2023-04-06T01:19:42;18.10;;;13.50;;
52866;SDS011;38739;53.324;6.862;2023-04-06T01:22:13;21.38;;;13.98;;
52866;SDS011;38739;53.324;6.862;2023-04-06T01:24:41;19.35;;;12.90;;
52866;SDS011;38739;53.324;6.862;2023-04-06T01:27:06;19.92;;;13.85;;
52866;SDS011;38739;53.324;6.862;2023-04-06T01:29:32;19.52;;;12.88;;
52866;SDS011;38739;53.324;6.862;2023-04-06T01:31:58;18.05;;;13.25;;
52866;SDS011;38739;53.324;6.862;2023-04-06T01:34:23;20.38;;;13.07;;
52866;SDS011;38739;53.324;6.862;2023-04-06T01:36:49;20.70;;;14.30;;
52866;SDS011;38739;53.324;6.862;2023-04-06T01:39:15;19.55;;;12.93;;
52866;SDS011;38739;53.324;6.862;2023-04-06T01:41:41;20.15;;;13.60;;
52866;SDS011;38739;53.324;6.862;2023-04-06T01:44:07;18.63;;;13.60;;
52866;SDS011;38739;53.324;6.862;2023-04-06T01:46:32;21.77;;;13.55;;
52866;SDS011;38739;53.324;6.862;2023-04-06T01:48:58;20.67;;;13.73;;
52866;SDS011;38739;53.324;6.862;2023-04-06T01:51:24;20.95;;;13.43;;
52866;SDS011;38739;53.324;6.862;2023-04-06T01:53:50;19.00;;;13.05;;
52866;SDS011;38739;53.324;6.862;2023-04-06T01:56:16;18.35;;;14.10;;
52866;SDS011;38739;53.324;6.862;2023-04-06T01:58:42;19.00;;;13.63;;
52866;SDS011;38739;53.324;6.862;2023-04-06T02:01:08;19.58;;;13.60;;
52866;SDS011;38739;53.324;6.862;2023-04-06T02:03:34;18.90;;;13.55;;
52866;SDS011;38739;53.324;6.862;2023-04-06T02:06:00;19.45;;;13.82;;
52866;SDS011;38739;53.324;6.862;2023-04-06T02:08:26;19.50;;;14.00;;
52866;SDS011;38739;53.324;6.862;2023-04-06T02:10:51;19.48;;;14.13;;
52866;SDS011;38739;53.324;6.862;2023-04-06T02:13:17;20.45;;;13.90;;
52866;SDS011;38739;53.324;6.862;2023-04-06T02:15:43;24.27;;;14.40;;
52866;SDS011;38739;53.324;6.862;2023-04-06T02:18:08;18.20;;;13.73;;
52866;SDS011;38739;53.324;6.862;2023-04-06T02:20:35;23.80;;;14.23;;
52866;SDS011;38739;53.324;6.862;2023-04-06T02:23:00;19.30;;;14.18;;
52866;SDS011;38739;53.324;6.862;2023-04-06T02:25:26;20.88;;;14.00;;
52866;SDS011;38739;53.324;6.862;2023-04-06T02:27:53;20.48;;;14.52;;
52866;SDS011;38739;53.324;6.862;2023-04-06T02:30:18;23.05;;;14.80;;
52866;SDS011;38739;53.324;6.862;2023-04-06T02:32:46;22.60;;;14.73;;
52866;SDS011;38739;53.324;6.862;2023-04-06T02:35:11;21.15;;;15.07;;
52866;SDS011;38739;53.324;6.862;2023-04-06T02:37:37;21.27;;;14.77;;
52866;SDS011;38739;53.324;6.862;2023-04-06T02:40:03;27.13;;;14.75;;
52866;SDS011;38739;53.324;6.862;2023-04-06T02:42:29;23.98;;;15.15;;
52866;SDS011;38739;53.324;6.862;2023-04-06T02:44:55;24.08;;;15.40;;
52866;SDS011;38739;53.324;6.862;2023-04-06T02:47:20;22.08;;;14.63;;
52866;SDS011;38739;53.324;6.862;2023-04-06T02:49:46;22.25;;;14.85;;
52866;SDS011;38739;53.324;6.862;2023-04-06T02:52:12;23.63;;;14.63;;
52866;SDS011;38739;53.324;6.862;2023-04-06T02:54:38;23.75;;;15.68;;
52866;SDS011;38739;53.324;6.862;2023-04-06T02:57:03;24.05;;;15.20;;
52866;SDS011;38739;53.324;6.862;2023-04-06T02:59:29;26.92;;;15.35;;
52866;SDS011;38739;53.324;6.862;2023-04-06T03:01:55;23.25;;;14.68;;
52866;SDS011;38739;53.324;6.862;2023-04-06T03:04:20;19.80;;;14.32;;
52866;SDS011;38739;53.324;6.862;2023-04-06T03:06:50;20.92;;;13.95;;
52866;SDS011;38739;53.324;6.862;2023-04-06T03:09:16;19.83;;;13.90;;
52866;SDS011;38739;53.324;6.862;2023-04-06T03:11:42;21.33;;;14.80;;
52866;SDS011;38739;53.324;6.862;2023-04-06T03:14:07;19.38;;;13.82;;
52866;SDS011;38739;53.324;6.862;2023-04-06T03:16:33;21.58;;;14.82;;
52866;SDS011;38739;53.324;6.862;2023-04-06T03:18:59;20.17;;;14.23;;
52866;SDS011;38739;53.324;6.862;2023-04-06T03:21:25;19.80;;;14.05;;
52866;SDS011;38739;53.324;6.862;2023-04-06T03:23:50;19.98;;;13.88;;
52866;SDS011;38739;53.324;6.862;2023-04-06T03:26:16;22.73;;;14.93;;
52866;SDS011;38739;53.324;6.862;2023-04-06T03:28:45;23.58;;;14.80;;
52866;SDS011;38739;53.324;6.862;2023-04-06T03:31:11;21.23;;;15.05;;
52866;SDS011;38739;53.324;6.862;2023-04-06T03:33:36;20.60;;;14.38;;
52866;SDS011;38739;53.324;6.862;2023-04-06T03:36:02;18.80;;;14.20;;
52866;SDS011;38739;53.324;6.862;2023-04-06T03:38:29;23.15;;;15.60;;
52866;SDS011;38739;53.324;6.862;2023-04-06T03:40:54;21.80;;;14.85;;
52866;SDS011;38739;53.324;6.862;2023-04-06T03:43:20;20.20;;;14.20;;
52866;SDS011;38739;53.324;6.862;2023-04-06T03:45:46;20.60;;;14.90;;
52866;SDS011;38739;53.324;6.862;2023-04-06T03:48:11;19.17;;;14.68;;
52866;SDS011;38739;53.324;6.862;2023-04-06T03:50:37;22.52;;;14.85;;
52866;SDS011;38739;53.324;6.862;2023-04-06T03:53:03;23.63;;;15.43;;
52866;SDS011;38739;53.324;6.862;2023-04-06T03:55:29;21.98;;;16.00;;
52866;SDS011;38739;53.324;6.862;2023-04-06T03:57:55;24.45;;;16.30;;
52866;SDS011;38739;53.324;6.862;2023-04-06T04:00:20;24.42;;;15.85;;
52866;SDS011;38739;53.324;6.862;2023-04-06T04:02:46;21.38;;;16.05;;
52866;SDS011;38739;53.324;6.862;2023-04-06T04:05:12;22.00;;;15.70;;
52866;SDS011;38739;53.324;6.862;2023-04-06T04:07:38;24.98;;;15.93;;
52866;SDS011;38739;53.324;6.862;2023-04-06T04:10:04;27.25;;;15.95;;
52866;SDS011;38739;53.324;6.862;2023-04-06T04:12:29;22.92;;;15.30;;
52866;SDS011;38739;53.324;6.862;2023-04-06T04:14:55;24.00;;;15.95;;
52866;SDS011;38739;53.324;6.862;2023-04-06T04:17:21;26.60;;;16.40;;
52866;SDS011;38739;53.324;6.862;2023-04-06T04:19:47;22.73;;;15.73;;
52866;SDS011;38739;53.324;6.862;2023-04-06T04:22:12;31.73;;;17.17;;
52866;SDS011;38739;53.324;6.862;2023-04-06T04:24:38;22.98;;;16.13;;
52866;SDS011;38739;53.324;6.862;2023-04-06T04:27:04;26.00;;;16.92;;
52866;SDS011;38739;53.324;6.862;2023-04-06T04:29:30;24.38;;;15.98;;
52866;SDS011;38739;53.324;6.862;2023-04-06T04:31:56;26.10;;;17.60;;
52866;SDS011;38739;53.324;6.862;2023-04-06T04:34:21;23.90;;;16.17;;
52866;SDS011;38739;53.324;6.862;2023-04-06T04:36:50;24.23;;;16.92;;
52866;SDS011;38739;53.324;6.862;2023-04-06T04:39:19;23.23;;;16.83;;
52866;SDS011;38739;53.324;6.862;2023-04-06T04:41:44;26.38;;;16.92;;
52866;SDS011;38739;53.324;6.862;2023-04-06T04:44:10;25.42;;;16.92;;
52866;SDS011;38739;53.324;6.862;2023-04-06T04:46:36;24.13;;;16.60;;
52866;SDS011;38739;53.324;6.862;2023-04-06T04:49:02;24.02;;;17.33;;
52866;SDS011;38739;53.324;6.862;2023-04-06T04:51:28;25.30;;;17.02;;
52866;SDS011;38739;53.324;6.862;2023-04-06T04:53:53;28.67;;;16.80;;
52866;SDS011;38739;53.324;6.862;2023-04-06T04:56:19;25.63;;;17.92;;
52866;SDS011;38739;53.324;6.862;2023-04-06T04:58:45;24.80;;;16.88;;
52866;SDS011;38739;53.324;6.862;2023-04-06T05:01:10;26.58;;;17.23;;
52866;SDS011;38739;53.324;6.862;2023-04-06T05:03:36;25.63;;;17.35;;
52866;SDS011;38739;53.324;6.862;2023-04-06T05:06:04;26.00;;;18.88;;
52866;SDS011;38739;53.324;6.862;2023-04-06T05:08:30;25.45;;;17.75;;
52866;SDS011;38739;53.324;6.862;2023-04-06T05:10:56;26.15;;;17.40;;
52866;SDS011;38739;53.324;6.862;2023-04-06T05:13:22;27.05;;;17.98;;
52866;SDS011;38739;53.324;6.862;2023-04-06T05:15:47;25.58;;;17.08;;
52866;SDS011;38739;53.324;6.862;2023-04-06T05:18:13;26.88;;;17.42;;
52866;SDS011;38739;53.324;6.862;2023-04-06T05:20:39;23.98;;;17.77;;
52866;SDS011;38739;53.324;6.862;2023-04-06T05:23:05;24.15;;;16.75;;
52866;SDS011;38739;53.324;6.862;2023-04-06T05:25:31;27.67;;;17.73;;
52866;SDS011;38739;53.324;6.862;2023-04-06T05:27:57;25.88;;;17.55;;
52866;SDS011;38739;53.324;6.862;2023-04-06T05:30:23;25.60;;;16.20;;
52866;SDS011;38739;53.324;6.862;2023-04-06T05:32:49;23.10;;;16.25;;
52866;SDS011;38739;53.324;6.862;2023-04-06T05:35:15;25.25;;;16.73;;
52866;SDS011;38739;53.324;6.862;2023-04-06T05:37:42;26.27;;;15.98;;
52866;SDS011;38739;53.324;6.862;2023-04-06T05:40:08;24.85;;;16.60;;
52866;SDS011;38739;53.324;6.862;2023-04-06T05:42:41;23.95;;;16.48;;
52866;SDS011;38739;53.324;6.862;2023-04-06T05:45:07;22.40;;;16.23;;
52866;SDS011;38739;53.324;6.862;2023-04-06T05:47:35;24.48;;;15.93;;
52866;SDS011;38739;53.324;6.862;2023-04-06T05:50:02;24.70;;;15.85;;
52866;SDS011;38739;53.324;6.862;2023-04-06T05:52:28;22.35;;;15.52;;
52866;SDS011;38739;53.324;6.862;2023-04-06T05:54:54;24.88;;;15.80;;
52866;SDS011;38739;53.324;6.862;2023-04-06T05:57:20;22.88;;;15.52;;
52866;SDS011;38739;53.324;6.862;2023-04-06T05:59:45;23.92;;;15.82;;
52866;SDS011;38739;53.324;6.862;2023-04-06T06:02:11;23.88;;;15.18;;
52866;SDS011;38739;53.324;6.862;2023-04-06T06:04:37;24.83;;;15.98;;
52866;SDS011;38739;53.324;6.862;2023-04-06T06:07:03;25.88;;;16.17;;
52866;SDS011;38739;53.324;6.862;2023-04-06T06:09:28;22.17;;;15.23;;
52866;SDS011;38739;53.324;6.862;2023-04-06T06:11:54;23.20;;;14.98;;
52866;SDS011;38739;53.324;6.862;2023-04-06T06:14:20;23.48;;;16.13;;
52866;SDS011;38739;53.324;6.862;2023-04-06T06:16:47;24.15;;;16.25;;
52866;SDS011;38739;53.324;6.862;2023-04-06T06:19:12;21.75;;;15.10;;
52866;SDS011;38739;53.324;6.862;2023-04-06T06:21:38;21.48;;;15.02;;
52866;SDS011;38739;53.324;6.862;2023-04-06T06:24:04;22.88;;;15.18;;
52866;SDS011;38739;53.324;6.862;2023-04-06T06:26:30;21.33;;;15.05;;
52866;SDS011;38739;53.324;6.862;2023-04-06T06:28:56;22.35;;;14.98;;
52866;SDS011;38739;53.324;6.862;2023-04-06T06:31:22;21.05;;;14.75;;
52866;SDS011;38739;53.324;6.862;2023-04-06T06:33:51;19.33;;;14.88;;
52866;SDS011;38739;53.324;6.862;2023-04-06T06:36:17;22.67;;;14.73;;
52866;SDS011;38739;53.324;6.862;2023-04-06T06:38:43;23.23;;;14.63;;
52866;SDS011;38739;53.324;6.862;2023-04-06T06:41:10;19.95;;;15.02;;
52866;SDS011;38739;53.324;6.862;2023-04-06T06:43:36;20.00;;;14.88;;
52866;SDS011;38739;53.324;6.862;2023-04-06T06:46:02;21.95;;;14.40;;
52866;SDS011;38739;53.324;6.862;2023-04-06T06:48:28;23.50;;;14.73;;
52866;SDS011;38739;53.324;6.862;2023-04-06T06:50:54;24.77;;;14.63;;
52866;SDS011;38739;53.324;6.862;2023-04-06T06:53:20;20.17;;;14.55;;
52866;SDS011;38739;53.324;6.862;2023-04-06T06:55:46;19.10;;;13.52;;
52866;SDS011;38739;53.324;6.862;2023-04-06T06:58:13;22.73;;;14.13;;
52866;SDS011;38739;53.324;6.862;2023-04-06T07:00:39;20.77;;;13.32;;
52866;SDS011;38739;53.324;6.862;2023-04-06T07:03:05;19.77;;;14.00;;
52866;SDS011;38739;53.324;6.862;2023-04-06T07:05:31;18.83;;;13.70;;
52866;SDS011;38739;53.324;6.862;2023-04-06T07:07:57;25.50;;;13.65;;
52866;SDS011;38739;53.324;6.862;2023-04-06T07:10:22;21.83;;;13.43;;
52866;SDS011;38739;53.324;6.862;2023-04-06T07:12:48;19.40;;;12.82;;
52866;SDS011;38739;53.324;6.862;2023-04-06T07:15:14;21.65;;;13.45;;
52866;SDS011;38739;53.324;6.862;2023-04-06T07:17:40;18.83;;;12.63;;
52866;SDS011;38739;53.324;6.862;2023-04-06T07:20:14;20.75;;;13.55;;
52866;SDS011;38739;53.324;6.862;2023-04-06T07:22:42;21.20;;;13.38;;
52866;SDS011;38739;53.324;6.862;2023-04-06T07:25:09;16.85;;;12.80;;
52866;SDS011;38739;53.324;6.862;2023-04-06T07:27:35;22.17;;;13.18;;
52866;SDS011;38739;53.324;6.862;2023-04-06T07:30:01;18.85;;;13.48;;
52866;SDS011;38739;53.324;6.862;2023-04-06T07:32:27;19.13;;;12.95;;
52866;SDS011;38739;53.324;6.862;2023-04-06T07:34:53;20.88;;;13.10;;
52866;SDS011;38739;53.324;6.862;2023-04-06T07:37:19;16.35;;;11.95;;
52866;SDS011;38739;53.324;6.862;2023-04-06T07:39:45;17.95;;;12.77;;
52866;SDS011;38739;53.324;6.862;2023-04-06T07:42:11;18.70;;;12.77;;
52866;SDS011;38739;53.324;6.862;2023-04-06T07:44:37;19.60;;;13.05;;
52866;SDS011;38739;53.324;6.862;2023-04-06T07:47:02;17.15;;;12.88;;
52866;SDS011;38739;53.324;6.862;2023-04-06T07:49:28;17.02;;;13.02;;
52866;SDS011;38739;53.324;6.862;2023-04-06T07:51:54;15.63;;;12.38;;
52866;SDS011;38739;53.324;6.862;2023-04-06T07:54:21;16.20;;;12.75;;
52866;SDS011;38739;53.324;6.862;2023-04-06T07:56:46;17.55;;;12.45;;
52866;SDS011;38739;53.324;6.862;2023-04-06T07:59:12;19.70;;;12.85;;
52866;SDS011;38739;53.324;6.862;2023-04-06T08:01:38;15.70;;;12.23;;
52866;SDS011;38739;53.324;6.862;2023-04-06T08:04:04;15.75;;;11.88;;
52866;SDS011;38739;53.324;6.862;2023-04-06T08:06:30;15.52;;;11.68;;
52866;SDS011;38739;53.324;6.862;2023-04-06T08:08:56;15.77;;;11.95;;
52866;SDS011;38739;53.324;6.862;2023-04-06T08:11:22;16.00;;;12.25;;
52866;SDS011;38739;53.324;6.862;2023-04-06T08:13:47;17.13;;;11.43;;
52866;SDS011;38739;53.324;6.862;2023-04-06T08:16:13;16.65;;;11.25;;
52866;SDS011;38739;53.324;6.862;2023-04-06T08:18:40;15.68;;;11.52;;
52866;SDS011;38739;53.324;6.862;2023-04-06T08:21:05;17.65;;;11.85;;
52866;SDS011;38739;53.324;6.862;2023-04-06T08:23:31;16.85;;;12.07;;
52866;SDS011;38739;53.324;6.862;2023-04-06T08:25:57;13.60;;;11.13;;
52866;SDS011;38739;53.324;6.862;2023-04-06T08:28:22;15.85;;;11.55;;
52866;SDS011;38739;53.324;6.862;2023-04-06T08:30:48;14.95;;;10.70;;
52866;SDS011;38739;53.324;6.862;2023-04-06T08:33:14;14.13;;;10.68;;
52866;SDS011;38739;53.324;6.862;2023-04-06T08:35:40;17.45;;;11.40;;
52866;SDS011;38739;53.324;6.862;2023-04-06T08:38:06;14.02;;;11.07;;
52866;SDS011;38739;53.324;6.862;2023-04-06T08:40:36;15.20;;;10.25;;
52866;SDS011;38739;53.324;6.862;2023-04-06T08:43:06;14.45;;;10.50;;
52866;SDS011;38739;53.324;6.862;2023-04-06T08:45:36;14.27;;;11.00;;
52866;SDS011;38739;53.324;6.862;2023-04-06T08:48:04;13.98;;;10.82;;
52866;SDS011;38739;53.324;6.862;2023-04-06T08:50:32;20.52;;;11.55;;
52866;SDS011;38739;53.324;6.862;2023-04-06T08:52:58;14.45;;;10.65;;
52866;SDS011;38739;53.324;6.862;2023-04-06T08:55:25;17.98;;;10.38;;
52866;SDS011;38739;53.324;6.862;2023-04-06T08:57:50;13.57;;;10.60;;
52866;SDS011;38739;53.324;6.862;2023-04-06T09:00:19;27.55;;;10.98;;
52866;SDS011;38739;53.324;6.862;2023-04-06T09:02:45;13.63;;;10.40;;
52866;SDS011;38739;53.324;6.862;2023-04-06T09:05:14;14.55;;;10.70;;
52866;SDS011;38739;53.324;6.862;2023-04-06T09:07:41;33.05;;;12.18;;
52866;SDS011;38739;53.324;6.862;2023-04-06T09:10:07;27.30;;;10.88;;
52866;SDS011;38739;53.324;6.862;2023-04-06T09:12:34;37.58;;;11.05;;
52866;SDS011;38739;53.324;6.862;2023-04-06T09:15:00;24.52;;;10.57;;
52866;SDS011;38739;53.324;6.862;2023-04-06T09:17:27;13.55;;;9.98;;
52866;SDS011;38739;53.324;6.862;2023-04-06T09:19:55;15.23;;;10.05;;
52866;SDS011;38739;53.324;6.862;2023-04-06T09:22:21;14.05;;;9.77;;
52866;SDS011;38739;53.324;6.862;2023-04-06T09:24:49;12.07;;;9.65;;
52866;SDS011;38739;53.324;6.862;2023-04-06T09:27:15;16.10;;;9.48;;
52866;SDS011;38739;53.324;6.862;2023-04-06T09:29:41;17.25;;;10.52;;
52866;SDS011;38739;53.324;6.862;2023-04-06T09:32:08;17.05;;;10.20;;
52866;SDS011;38739;53.324;6.862;2023-04-06T09:34:41;34.97;;;10.88;;
52866;SDS011;38739;53.324;6.862;2023-04-06T09:37:17;18.15;;;10.10;;
52866;SDS011;38739;53.324;6.862;2023-04-06T09:39:44;12.38;;;10.00;;
52866;SDS011;38739;53.324;6.862;2023-04-06T09:42:32;15.35;;;10.20;;
52866;SDS011;38739;53.324;6.862;2023-04-06T09:44:56;16.55;;;10.07;;
52866;SDS011;38739;53.324;6.862;2023-04-06T09:47:22;13.57;;;10.00;;
52866;SDS011;38739;53.324;6.862;2023-04-06T09:49:50;16.13;;;10.65;;
52866;SDS011;38739;53.324;6.862;2023-04-06T09:52:17;19.00;;;10.75;;
52866;SDS011;38739;53.324;6.862;2023-04-06T09:54:46;13.65;;;10.13;;
52866;SDS011;38739;53.324;6.862;2023-04-06T09:59:47;13.38;;;10.40;;
52866;SDS011;38739;53.324;6.862;2023-04-06T10:04:58;13.88;;;10.02;;
52866;SDS011;38739;53.324;6.862;2023-04-06T10:07:27;13.20;;;10.23;;
52866;SDS011;38739;53.324;6.862;2023-04-06T10:09:54;14.48;;;10.35;;
52866;SDS011;38739;53.324;6.862;2023-04-06T10:12:20;14.75;;;10.65;;
52866;SDS011;38739;53.324;6.862;2023-04-06T10:14:46;14.10;;;10.13;;
52866;SDS011;38739;53.324;6.862;2023-04-06T10:17:13;15.52;;;11.52;;
52866;SDS011;38739;53.324;6.862;2023-04-06T10:22:29;13.60;;;10.80;;
52866;SDS011;38739;53.324;6.862;2023-04-06T10:25:03;16.38;;;10.85;;
52866;SDS011;38739;53.324;6.862;2023-04-06T10:27:29;16.95;;;11.30;;
52866;SDS011;38739;53.324;6.862;2023-04-06T10:30:02;15.05;;;11.50;;
52866;SDS011;38739;53.324;6.862;2023-04-06T10:32:35;15.43;;;11.48;;
52866;SDS011;38739;53.324;6.862;2023-04-06T10:35:06;19.90;;;11.75;;
52866;SDS011;38739;53.324;6.862;2023-04-06T10:40:24;16.33;;;11.50;;
52866;SDS011;38739;53.324;6.862;2023-04-06T10:42:51;17.95;;;12.18;;
52866;SDS011;38739;53.324;6.862;2023-04-06T10:45:21;18.20;;;12.20;;
52866;SDS011;38739;53.324;6.862;2023-04-06T10:47:49;15.27;;;12.37;;
52866;SDS011;38739;53.324;6.862;2023-04-06T10:50:17;19.90;;;13.02;;
52866;SDS011;38739;53.324;6.862;2023-04-06T10:52:44;19.42;;;13.75;;
52866;SDS011;38739;53.324;6.862;2023-04-06T10:55:11;19.67;;;14.38;;
52866;SDS011;38739;53.324;6.862;2023-04-06T10:57:39;20.55;;;13.13;;
52866;SDS011;38739;53.324;6.862;2023-04-06T11:00:07;18.17;;;13.25;;
52866;SDS011;38739;53.324;6.862;2023-04-06T11:02:34;21.58;;;14.90;;
52866;SDS011;38739;53.324;6.862;2023-04-06T11:05:02;21.67;;;14.75;;
52866;SDS011;38739;53.324;6.862;2023-04-06T11:07:28;21.75;;;15.35;;
52866;SDS011;38739;53.324;6.862;2023-04-06T11:09:55;21.80;;;15.65;;
52866;SDS011;38739;53.324;6.862;2023-04-06T11:12:25;20.48;;;15.07;;
52866;SDS011;38739;53.324;6.862;2023-04-06T11:14:56;23.70;;;16.00;;
52866;SDS011;38739;53.324;6.862;2023-04-06T11:17:35;23.98;;;15.80;;
52866;SDS011;38739;53.324;6.862;2023-04-06T11:20:02;22.90;;;15.20;;
52866;SDS011;38739;53.324;6.862;2023-04-06T11:22:29;21.67;;;15.43;;
52866;SDS011;38739;53.324;6.862;2023-04-06T11:25:08;20.85;;;15.32;;
52866;SDS011;38739;53.324;6.862;2023-04-06T11:27:34;21.95;;;16.00;;
52866;SDS011;38739;53.324;6.862;2023-04-06T11:30:00;22.48;;;16.00;;
52866;SDS011;38739;53.324;6.862;2023-04-06T11:32:27;27.35;;;16.88;;
52866;SDS011;38739;53.324;6.862;2023-04-06T11:34:53;22.90;;;16.88;;
52866;SDS011;38739;53.324;6.862;2023-04-06T11:37:21;21.92;;;16.48;;
52866;SDS011;38739;53.324;6.862;2023-04-06T11:39:53;25.42;;;17.58;;
52866;SDS011;38739;53.324;6.862;2023-04-06T11:42:21;25.90;;;19.40;;
52866;SDS011;38739;53.324;6.862;2023-04-06T11:44:49;26.98;;;18.23;;
52866;SDS011;38739;53.324;6.862;2023-04-06T11:47:26;23.80;;;17.90;;
52866;SDS011;38739;53.324;6.862;2023-04-06T11:52:34;24.75;;;18.83;;
52866;SDS011;38739;53.324;6.862;2023-04-06T11:55:09;29.27;;;17.88;;
52866;SDS011;38739;53.324;6.862;2023-04-06T11:57:37;24.40;;;18.23;;
52866;SDS011;38739;53.324;6.862;2023-04-06T12:00:03;26.10;;;17.75;;
52866;SDS011;38739;53.324;6.862;2023-04-06T12:02:29;25.38;;;18.17;;
52866;SDS011;38739;53.324;6.862;2023-04-06T12:04:57;25.48;;;17.98;;
52866;SDS011;38739;53.324;6.862;2023-04-06T12:07:23;26.60;;;18.58;;
52866;SDS011;38739;53.324;6.862;2023-04-06T12:09:48;24.48;;;17.73;;
52866;SDS011;38739;53.324;6.862;2023-04-06T12:12:14;25.20;;;18.63;;
52866;SDS011;38739;53.324;6.862;2023-04-06T12:14:40;24.85;;;18.00;;
52866;SDS011;38739;53.324;6.862;2023-04-06T12:17:06;28.48;;;19.85;;
52866;SDS011;38739;53.324;6.862;2023-04-06T12:19:31;27.65;;;19.67;;
52866;SDS011;38739;53.324;6.862;2023-04-06T12:21:57;28.25;;;19.35;;
52866;SDS011;38739;53.324;6.862;2023-04-06T12:24:23;28.92;;;20.10;;
52866;SDS011;38739;53.324;6.862;2023-04-06T12:26:49;28.73;;;19.98;;
52866;SDS011;38739;53.324;6.862;2023-04-06T12:29:15;26.63;;;20.77;;
52866;SDS011;38739;53.324;6.862;2023-04-06T12:31:41;28.65;;;21.15;;
52866;SDS011;38739;53.324;6.862;2023-04-06T12:34:08;29.73;;;21.85;;
52866;SDS011;38739;53.324;6.862;2023-04-06T12:36:33;28.23;;;20.73;;
52866;SDS011;38739;53.324;6.862;2023-04-06T12:38:59;27.67;;;21.00;;
52866;SDS011;38739;53.324;6.862;2023-04-06T12:41:26;32.40;;;22.05;;
52866;SDS011;38739;53.324;6.862;2023-04-06T12:43:52;31.52;;;21.67;;
52866;SDS011;38739;53.324;6.862;2023-04-06T12:46:18;30.00;;;21.85;;
52866;SDS011;38739;53.324;6.862;2023-04-06T12:48:44;31.55;;;22.67;;
52866;SDS011;38739;53.324;6.862;2023-04-06T12:51:11;28.33;;;21.98;;
52866;SDS011;38739;53.324;6.862;2023-04-06T12:53:37;30.67;;;21.83;;
52866;SDS011;38739;53.324;6.862;2023-04-06T12:56:09;29.67;;;22.25;;
52866;SDS011;38739;53.324;6.862;2023-04-06T12:58:40;31.02;;;22.67;;
52866;SDS011;38739;53.324;6.862;2023-04-06T13:01:06;28.83;;;22.95;;
52866;SDS011;38739;53.324;6.862;2023-04-06T13:03:33;29.67;;;22.73;;
52866;SDS011;38739;53.324;6.862;2023-04-06T13:05:59;30.70;;;22.10;;
52866;SDS011;38739;53.324;6.862;2023-04-06T13:08:26;30.73;;;23.17;;
52866;SDS011;38739;53.324;6.862;2023-04-06T13:10:52;30.92;;;22.88;;
52866;SDS011;38739;53.324;6.862;2023-04-06T13:13:28;30.48;;;23.40;;
52866;SDS011;38739;53.324;6.862;2023-04-06T13:15:58;30.10;;;21.98;;
52866;SDS011;38739;53.324;6.862;2023-04-06T13:18:26;32.37;;;23.03;;
52866;SDS011;38739;53.324;6.862;2023-04-06T13:20:52;30.65;;;22.40;;
52866;SDS011;38739;53.324;6.862;2023-04-06T13:23:17;28.55;;;22.02;;
52866;SDS011;38739;53.324;6.862;2023-04-06T13:25:43;30.05;;;23.33;;
52866;SDS011;38739;53.324;6.862;2023-04-06T13:28:09;30.67;;;23.23;;
52866;SDS011;38739;53.324;6.862;2023-04-06T13:30:35;31.80;;;23.17;;
52866;SDS011;38739;53.324;6.862;2023-04-06T13:33:01;32.83;;;22.63;;
52866;SDS011;38739;53.324;6.862;2023-04-06T13:35:27;32.70;;;22.75;;
52866;SDS011;38739;53.324;6.862;2023-04-06T13:37:53;29.95;;;23.48;;
52866;SDS011;38739;53.324;6.862;2023-04-06T13:40:19;31.67;;;22.65;;
52866;SDS011;38739;53.324;6.862;2023-04-06T13:42:46;32.55;;;22.48;;
52866;SDS011;38739;53.324;6.862;2023-04-06T13:45:12;33.60;;;23.90;;
52866;SDS011;38739;53.324;6.862;2023-04-06T13:47:38;30.85;;;23.33;;
52866;SDS011;38739;53.324;6.862;2023-04-06T13:50:04;30.38;;;23.42;;
52866;SDS011;38739;53.324;6.862;2023-04-06T13:52:31;29.27;;;23.10;;
52866;SDS011;38739;53.324;6.862;2023-04-06T13:54:57;32.67;;;23.70;;
52866;SDS011;38739;53.324;6.862;2023-04-06T13:57:22;32.97;;;23.80;;
52866;SDS011;38739;53.324;6.862;2023-04-06T13:59:48;32.40;;;23.50;;
52866;SDS011;38739;53.324;6.862;2023-04-06T14:02:15;28.00;;;22.70;;
52866;SDS011;38739;53.324;6.862;2023-04-06T14:04:41;32.05;;;22.77;;
52866;SDS011;38739;53.324;6.862;2023-04-06T14:07:07;32.38;;;23.63;;
52866;SDS011;38739;53.324;6.862;2023-04-06T14:09:33;31.17;;;22.17;;
52866;SDS011;38739;53.324;6.862;2023-04-06T14:11:59;32.70;;;23.92;;
52866;SDS011;38739;53.324;6.862;2023-04-06T14:14:25;34.88;;;25.10;;
52866;SDS011;38739;53.324;6.862;2023-04-06T14:16:51;32.65;;;24.77;;
52866;SDS011;38739;53.324;6.862;2023-04-06T14:19:17;30.80;;;23.05;;
52866;SDS011;38739;53.324;6.862;2023-04-06T14:21:46;32.17;;;23.80;;
52866;SDS011;38739;53.324;6.862;2023-04-06T14:24:13;31.88;;;23.75;;
52866;SDS011;38739;53.324;6.862;2023-04-06T14:26:40;32.45;;;24.48;;
52866;SDS011;38739;53.324;6.862;2023-04-06T14:29:09;30.98;;;23.88;;
52866;SDS011;38739;53.324;6.862;2023-04-06T14:31:35;33.92;;;24.13;;